sensor_id;sensor_type;location;lat;lon;timestamp;pressure;altitude;pressure_sealevel;temperature;humidity
7182;BME280;3632;42.724;23.298;2022-10-10T00:00:58;96121.56;;;13.95;91.68
7182;BME280;3632;42.724;23.298;2022-10-10T00:03:26;96119.00;;;13.84;92.84
7182;BME280;3632;42.724;23.298;2022-10-10T00:05:53;96015.91;;;12.71;92.82
7182;BME280;3632;42.724;23.298;2022-10-10T00:08:20;96136.59;;;13.89;93.82
7182;BME280;3632;42.724;23.298;2022-10-10T00:10:47;96171.19;;;13.94;93.79
7182;BME280;3632;42.724;23.298;2022-10-10T00:13:14;96139.84;;;13.91;94.40
7182;BME280;3632;42.724;23.298;2022-10-10T00:15:41;96089.94;;;13.30;92.50
7182;BME280;3632;42.724;23.298;2022-10-10T00:18:08;96136.84;;;13.41;94.19
7182;BME280;3632;42.724;23.298;2022-10-10T00:20:36;96140.69;;;13.47;95.57
7182;BME280;3632;42.724;23.298;2022-10-10T00:23:03;96138.84;;;13.49;96.24
7182;BME280;3632;42.724;23.298;2022-10-10T00:25:30;96132.22;;;13.57;96.04
7182;BME280;3632;42.724;23.298;2022-10-10T00:28:00;96136.16;;;13.72;95.56
7182;BME280;3632;42.724;23.298;2022-10-10T00:30:27;96131.00;;;13.84;93.21
7182;BME280;3632;42.724;23.298;2022-10-10T00:32:54;96031.53;;;13.12;93.23
7182;BME280;3632;42.724;23.298;2022-10-10T00:35:21;96134.72;;;13.91;92.87
7182;BME280;3632;42.724;23.298;2022-10-10T00:37:49;96130.63;;;13.88;92.30
7182;BME280;3632;42.724;23.298;2022-10-10T00:40:16;96130.56;;;13.79;91.15
7182;BME280;3632;42.724;23.298;2022-10-10T00:42:43;96133.13;;;13.67;91.79
7182;BME280;3632;42.724;23.298;2022-10-10T00:45:36;96108.69;;;13.52;92.09
7182;BME280;3632;42.724;23.298;2022-10-10T00:48:05;96128.34;;;13.63;92.51
7182;BME280;3632;42.724;23.298;2022-10-10T00:50:37;96133.47;;;13.52;92.20
7182;BME280;3632;42.724;23.298;2022-10-10T00:53:07;96073.59;;;12.86;91.89
7182;BME280;3632;42.724;23.298;2022-10-10T00:55:36;96128.69;;;13.58;91.97
7182;BME280;3632;42.724;23.298;2022-10-10T00:58:04;96126.03;;;13.60;92.38
7182;BME280;3632;42.724;23.298;2022-10-10T01:00:32;96106.22;;;13.51;92.09
7182;BME280;3632;42.724;23.298;2022-10-10T01:02:59;96070.13;;;13.09;92.13
7182;BME280;3632;42.724;23.298;2022-10-10T01:05:26;95862.38;;;11.36;92.73
7182;BME280;3632;42.724;23.298;2022-10-10T01:07:53;96133.25;;;13.66;92.45
7182;BME280;3632;42.724;23.298;2022-10-10T01:10:22;96129.50;;;13.59;92.13
7182;BME280;3632;42.724;23.298;2022-10-10T01:12:57;96132.22;;;13.57;92.17
7182;BME280;3632;42.724;23.298;2022-10-10T01:15:37;96133.00;;;13.58;91.86
7182;BME280;3632;42.724;23.298;2022-10-10T01:18:16;96138.59;;;13.52;91.79
7182;BME280;3632;42.724;23.298;2022-10-10T01:21:01;96043.13;;;12.83;92.75
7182;BME280;3632;42.724;23.298;2022-10-10T01:23:56;96042.19;;;12.73;93.19
7182;BME280;3632;42.724;23.298;2022-10-10T01:26:47;96109.25;;;13.11;93.48
7182;BME280;3632;42.724;23.298;2022-10-10T01:29:24;96144.53;;;13.19;92.35
7182;BME280;3632;42.724;23.298;2022-10-10T01:31:57;95596.44;;;9.45;91.57
7182;BME280;3632;42.724;23.298;2022-10-10T01:34:32;96129.44;;;12.92;92.40
7182;BME280;3632;42.724;23.298;2022-10-10T01:37:09;95974.41;;;11.99;92.71
7182;BME280;3632;42.724;23.298;2022-10-10T01:39:47;96040.66;;;12.13;92.24
7182;BME280;3632;42.724;23.298;2022-10-10T01:42:19;96059.41;;;12.01;92.17
7182;BME280;3632;42.724;23.298;2022-10-10T01:44:53;96146.09;;;12.39;93.06
7182;BME280;3632;42.724;23.298;2022-10-10T01:53:37;96040.41;;;11.45;96.50
7182;BME280;3632;42.724;23.298;2022-10-10T01:56:12;96062.59;;;11.56;95.56
7182;BME280;3632;42.724;23.298;2022-10-10T02:01:46;96149.88;;;12.22;98.12
7182;BME280;3632;42.724;23.298;2022-10-10T02:04:30;95908.72;;;10.70;97.65
7182;BME280;3632;42.724;23.298;2022-10-10T02:07:01;95849.97;;;10.47;96.89
7182;BME280;3632;42.724;23.298;2022-10-10T02:09:35;96116.88;;;12.19;97.30
7182;BME280;3632;42.724;23.298;2022-10-10T02:12:05;95848.41;;;10.45;96.75
7182;BME280;3632;42.724;23.298;2022-10-10T02:14:54;95960.53;;;10.32;96.64
7182;BME280;3632;42.724;23.298;2022-10-10T02:17:25;95952.91;;;10.32;97.64
7182;BME280;3632;42.724;23.298;2022-10-10T02:19:54;96158.47;;;12.21;97.41
7182;BME280;3632;42.724;23.298;2022-10-10T02:22:23;95963.84;;;10.96;97.50
7182;BME280;3632;42.724;23.298;2022-10-10T02:24:53;96064.84;;;11.73;96.66
7182;BME280;3632;42.724;23.298;2022-10-10T02:27:25;95859.88;;;10.39;96.11
7182;BME280;3632;42.724;23.298;2022-10-10T02:29:55;96155.53;;;12.39;96.34
7182;BME280;3632;42.724;23.298;2022-10-10T02:32:30;96057.09;;;11.62;95.70
7182;BME280;3632;42.724;23.298;2022-10-10T02:37:48;96123.16;;;12.03;96.56
7182;BME280;3632;42.724;23.298;2022-10-10T02:40:22;96040.34;;;11.58;97.14
7182;BME280;3632;42.724;23.298;2022-10-10T02:42:54;96227.91;;;12.39;97.00
7182;BME280;3632;42.724;23.298;2022-10-10T02:45:41;96059.91;;;11.82;96.16
7182;BME280;3632;42.724;23.298;2022-10-10T02:48:10;96097.19;;;12.09;95.99
7182;BME280;3632;42.724;23.298;2022-10-10T02:50:37;95667.66;;;8.82;96.29
7182;BME280;3632;42.724;23.298;2022-10-10T02:53:04;96037.75;;;11.83;96.80
7182;BME280;3632;42.724;23.298;2022-10-10T02:55:31;96156.75;;;12.57;96.29
7182;BME280;3632;42.724;23.298;2022-10-10T02:57:58;96067.78;;;12.03;95.95
7182;BME280;3632;42.724;23.298;2022-10-10T03:00:26;96049.47;;;11.85;96.15
7182;BME280;3632;42.724;23.298;2022-10-10T03:02:53;96081.25;;;12.05;96.32
7182;BME280;3632;42.724;23.298;2022-10-10T03:05:21;96072.16;;;12.01;95.73
7182;BME280;3632;42.724;23.298;2022-10-10T03:07:49;96153.06;;;12.61;95.82
7182;BME280;3632;42.724;23.298;2022-10-10T03:10:16;96154.47;;;12.65;95.59
7182;BME280;3632;42.724;23.298;2022-10-10T03:12:43;96158.44;;;12.69;94.54
7182;BME280;3632;42.724;23.298;2022-10-10T03:15:10;96093.19;;;12.17;94.46
7182;BME280;3632;42.724;23.298;2022-10-10T03:17:37;95868.78;;;10.58;94.73
7182;BME280;3632;42.724;23.298;2022-10-10T03:20:06;96036.03;;;11.71;94.87
7182;BME280;3632;42.724;23.298;2022-10-10T03:22:35;96164.34;;;12.58;95.19
7182;BME280;3632;42.724;23.298;2022-10-10T03:25:02;96160.13;;;12.57;94.57
7182;BME280;3632;42.724;23.298;2022-10-10T03:27:29;96117.38;;;12.24;94.78
7182;BME280;3632;42.724;23.298;2022-10-10T03:29:56;95965.59;;;10.83;94.36
7182;BME280;3632;42.724;23.298;2022-10-10T03:32:24;96058.50;;;11.78;94.62
7182;BME280;3632;42.724;23.298;2022-10-10T03:34:51;96106.59;;;12.08;94.60
7182;BME280;3632;42.724;23.298;2022-10-10T03:37:18;96050.13;;;11.64;93.76
7182;BME280;3632;42.724;23.298;2022-10-10T03:39:48;96148.78;;;11.77;94.40
7182;BME280;3632;42.724;23.298;2022-10-10T03:42:17;95867.31;;;10.30;94.08
7182;BME280;3632;42.724;23.298;2022-10-10T03:44:44;96091.41;;;11.58;94.26
7182;BME280;3632;42.724;23.298;2022-10-10T03:47:11;96177.69;;;12.14;94.03
7182;BME280;3632;42.724;23.298;2022-10-10T03:49:40;96014.97;;;11.07;94.33
7182;BME280;3632;42.724;23.298;2022-10-10T03:52:11;96119.00;;;11.53;94.19
7182;BME280;3632;42.724;23.298;2022-10-10T03:57:29;96104.06;;;11.59;93.48
7182;BME280;3632;42.724;23.298;2022-10-10T03:59:59;96165.94;;;11.88;93.47
7182;BME280;3632;42.724;23.298;2022-10-10T04:05:13;96059.09;;;11.20;94.24
7182;BME280;3632;42.724;23.298;2022-10-10T04:13:40;96175.53;;;11.84;96.10
7182;BME280;3632;42.724;23.298;2022-10-10T04:16:26;96160.84;;;11.75;96.14
7182;BME280;3632;42.724;23.298;2022-10-10T04:18:54;96094.13;;;11.31;95.82
7182;BME280;3632;42.724;23.298;2022-10-10T04:21:21;96006.41;;;10.83;95.53
7182;BME280;3632;42.724;23.298;2022-10-10T04:23:48;95873.06;;;9.81;95.15
7182;BME280;3632;42.724;23.298;2022-10-10T04:26:16;95889.81;;;10.23;94.57
7182;BME280;3632;42.724;23.298;2022-10-10T04:28:44;96078.75;;;11.56;93.49
7182;BME280;3632;42.724;23.298;2022-10-10T04:31:11;96128.75;;;11.84;92.81
7182;BME280;3632;42.724;23.298;2022-10-10T04:33:38;96081.22;;;11.58;92.37
7182;BME280;3632;42.724;23.298;2022-10-10T04:36:06;95931.84;;;9.91;92.00
7182;BME280;3632;42.724;23.298;2022-10-10T04:38:33;96072.22;;;11.52;91.99
7182;BME280;3632;42.724;23.298;2022-10-10T04:41:00;96021.63;;;10.72;92.14
7182;BME280;3632;42.724;23.298;2022-10-10T04:43:28;96160.81;;;12.01;92.45
7182;BME280;3632;42.724;23.298;2022-10-10T04:45:56;95809.25;;;9.07;92.46
7182;BME280;3632;42.724;23.298;2022-10-10T04:51:09;96046.59;;;10.92;94.96
7182;BME280;3632;42.724;23.298;2022-10-10T05:02:14;96070.38;;;10.92;98.30
7182;BME280;3632;42.724;23.298;2022-10-10T05:04:41;96071.09;;;11.07;97.94
7182;BME280;3632;42.724;23.298;2022-10-10T05:07:09;95900.09;;;9.17;97.82
7182;BME280;3632;42.724;23.298;2022-10-10T05:09:41;96001.78;;;10.12;98.10
7182;BME280;3632;42.724;23.298;2022-10-10T05:12:10;95911.59;;;10.02;98.14
7182;BME280;3632;42.724;23.298;2022-10-10T05:14:37;95923.91;;;9.95;98.42
7182;BME280;3632;42.724;23.298;2022-10-10T05:17:05;95929.97;;;10.20;98.26
7182;BME280;3632;42.724;23.298;2022-10-10T05:19:33;95949.53;;;10.19;98.42
7182;BME280;3632;42.724;23.298;2022-10-10T05:22:01;95654.47;;;8.50;98.17
7182;BME280;3632;42.724;23.298;2022-10-10T05:24:49;96126.16;;;11.48;98.58
7182;BME280;3632;42.724;23.298;2022-10-10T05:27:17;96191.97;;;11.93;98.87
7182;BME280;3632;42.724;23.298;2022-10-10T05:29:44;96024.38;;;10.31;98.37
7182;BME280;3632;42.724;23.298;2022-10-10T05:32:11;96193.34;;;12.10;98.55
7182;BME280;3632;42.724;23.298;2022-10-10T05:34:40;96229.50;;;12.29;98.65
7182;BME280;3632;42.724;23.298;2022-10-10T05:37:07;96227.91;;;12.39;98.35
7182;BME280;3632;42.724;23.298;2022-10-10T05:39:34;96232.88;;;12.29;98.63
7182;BME280;3632;42.724;23.298;2022-10-10T05:42:02;96091.53;;;11.43;99.64
7182;BME280;3632;42.724;23.298;2022-10-10T05:44:30;96181.84;;;12.04;99.75
7182;BME280;3632;42.724;23.298;2022-10-10T05:46:57;95731.34;;;9.18;98.76
7182;BME280;3632;42.724;23.298;2022-10-10T05:49:24;96156.53;;;11.88;99.17
7182;BME280;3632;42.724;23.298;2022-10-10T05:51:52;96230.91;;;12.57;99.07
7182;BME280;3632;42.724;23.298;2022-10-10T05:54:19;96233.88;;;12.63;98.64
7182;BME280;3632;42.724;23.298;2022-10-10T05:56:47;96083.53;;;11.73;98.46
7182;BME280;3632;42.724;23.298;2022-10-10T05:59:14;96162.72;;;11.97;98.44
7182;BME280;3632;42.724;23.298;2022-10-10T06:01:46;96175.97;;;11.78;100.00
7182;BME280;3632;42.724;23.298;2022-10-10T06:04:14;95777.69;;;8.97;100.00
7182;BME280;3632;42.724;23.298;2022-10-10T06:06:42;96242.47;;;12.39;100.00
7182;BME280;3632;42.724;23.298;2022-10-10T06:09:10;96245.44;;;12.56;100.00
7182;BME280;3632;42.724;23.298;2022-10-10T06:11:37;96249.59;;;12.70;100.00
7182;BME280;3632;42.724;23.298;2022-10-10T06:14:05;96095.84;;;11.92;100.00
7182;BME280;3632;42.724;23.298;2022-10-10T06:16:32;96189.81;;;12.60;98.92
7182;BME280;3632;42.724;23.298;2022-10-10T06:18:59;96252.56;;;13.11;98.38
7182;BME280;3632;42.724;23.298;2022-10-10T06:21:26;95902.97;;;10.42;97.54
7182;BME280;3632;42.724;23.298;2022-10-10T06:29:25;96269.75;;;11.89;100.00
7182;BME280;3632;42.724;23.298;2022-10-10T06:34:36;96267.63;;;11.83;100.00
7182;BME280;3632;42.724;23.298;2022-10-10T06:45:24;96282.28;;;12.54;100.00
7182;BME280;3632;42.724;23.298;2022-10-10T06:47:51;96267.94;;;13.11;100.00
7182;BME280;3632;42.724;23.298;2022-10-10T06:50:18;96268.25;;;13.42;100.00
7182;BME280;3632;42.724;23.298;2022-10-10T06:52:45;96244.81;;;13.24;99.59
7182;BME280;3632;42.724;23.298;2022-10-10T06:55:11;96265.19;;;13.83;98.16
7182;BME280;3632;42.724;23.298;2022-10-10T06:57:38;96063.78;;;12.69;96.44
7182;BME280;3632;42.724;23.298;2022-10-10T07:00:06;96242.47;;;14.11;95.50
7182;BME280;3632;42.724;23.298;2022-10-10T07:02:35;96260.31;;;14.46;94.39
7182;BME280;3632;42.724;23.298;2022-10-10T07:05:05;96275.31;;;14.62;93.63
7182;BME280;3632;42.724;23.298;2022-10-10T07:07:33;96081.53;;;13.72;92.24
7182;BME280;3632;42.724;23.298;2022-10-10T07:10:02;96265.03;;;14.94;89.88
7182;BME280;3632;42.724;23.298;2022-10-10T07:12:29;96264.69;;;14.98;88.75
7182;BME280;3632;42.724;23.298;2022-10-10T07:14:56;96277.28;;;15.01;87.85
7182;BME280;3632;42.724;23.298;2022-10-10T07:17:22;96218.22;;;14.81;87.48
7182;BME280;3632;42.724;23.298;2022-10-10T07:19:51;96261.19;;;15.20;87.47
7182;BME280;3632;42.724;23.298;2022-10-10T07:22:18;96269.44;;;15.35;87.58
7182;BME280;3632;42.724;23.298;2022-10-10T07:24:45;96261.34;;;15.39;87.02
7182;BME280;3632;42.724;23.298;2022-10-10T07:27:12;96167.75;;;14.91;86.61
7182;BME280;3632;42.724;23.298;2022-10-10T07:29:39;96149.16;;;14.98;85.52
7182;BME280;3632;42.724;23.298;2022-10-10T07:32:07;95818.66;;;12.96;84.36
7182;BME280;3632;42.724;23.298;2022-10-10T07:34:35;96212.16;;;15.44;84.20
7182;BME280;3632;42.724;23.298;2022-10-10T07:37:03;96244.69;;;16.06;83.58
7182;BME280;3632;42.724;23.298;2022-10-10T07:39:30;96204.69;;;15.82;83.45
7182;BME280;3632;42.724;23.298;2022-10-10T07:41:57;96246.69;;;16.02;83.25
7182;BME280;3632;42.724;23.298;2022-10-10T07:44:24;96241.06;;;16.08;82.94
7182;BME280;3632;42.724;23.298;2022-10-10T07:46:51;96224.81;;;16.08;82.40
7182;BME280;3632;42.724;23.298;2022-10-10T07:49:18;96244.22;;;16.31;81.82
7182;BME280;3632;42.724;23.298;2022-10-10T07:51:47;95770.63;;;13.32;81.92
7182;BME280;3632;42.724;23.298;2022-10-10T07:54:15;96132.72;;;16.02;81.79
7182;BME280;3632;42.724;23.298;2022-10-10T07:56:42;96234.44;;;16.74;80.63
7182;BME280;3632;42.724;23.298;2022-10-10T07:59:09;96239.19;;;16.69;80.32
7182;BME280;3632;42.724;23.298;2022-10-10T08:01:36;96231.50;;;16.88;81.22
7182;BME280;3632;42.724;23.298;2022-10-10T08:04:02;96232.16;;;17.00;80.78
7182;BME280;3632;42.724;23.298;2022-10-10T08:06:29;96229.97;;;17.15;80.88
7182;BME280;3632;42.724;23.298;2022-10-10T08:08:56;96232.13;;;17.19;80.00
7182;BME280;3632;42.724;23.298;2022-10-10T08:11:24;96221.69;;;17.30;78.99
7182;BME280;3632;42.724;23.298;2022-10-10T08:13:51;96195.81;;;16.94;77.63
7182;BME280;3632;42.724;23.298;2022-10-10T08:16:18;95907.34;;;15.24;77.69
7182;BME280;3632;42.724;23.298;2022-10-10T08:18:45;96226.81;;;17.40;77.38
7182;BME280;3632;42.724;23.298;2022-10-10T08:21:14;96220.81;;;17.49;76.91
7182;BME280;3632;42.724;23.298;2022-10-10T08:23:41;96115.16;;;16.93;77.50
7182;BME280;3632;42.724;23.298;2022-10-10T08:26:09;96247.28;;;17.51;75.72
7182;BME280;3632;42.724;23.298;2022-10-10T08:28:38;96093.91;;;16.81;75.61
7182;BME280;3632;42.724;23.298;2022-10-10T08:31:06;96217.25;;;17.79;75.24
7182;BME280;3632;42.724;23.298;2022-10-10T08:33:33;96209.59;;;17.97;75.05
7182;BME280;3632;42.724;23.298;2022-10-10T08:36:03;96223.75;;;18.20;74.39
7182;BME280;3632;42.724;23.298;2022-10-10T08:38:30;96212.91;;;18.34;74.09
7182;BME280;3632;42.724;23.298;2022-10-10T08:40:59;96182.53;;;18.28;73.39
7182;BME280;3632;42.724;23.298;2022-10-10T08:43:30;96220.63;;;18.71;73.42
7182;BME280;3632;42.724;23.298;2022-10-10T08:46:07;96223.06;;;18.90;72.95
7182;BME280;3632;42.724;23.298;2022-10-10T08:48:36;96220.78;;;19.05;72.10
7182;BME280;3632;42.724;23.298;2022-10-10T08:51:07;96221.47;;;19.15;71.95
7182;BME280;3632;42.724;23.298;2022-10-10T08:53:39;96210.09;;;19.26;68.42
7182;BME280;3632;42.724;23.298;2022-10-10T08:56:12;95844.88;;;16.83;69.29
7182;BME280;3632;42.724;23.298;2022-10-10T08:58:44;96234.78;;;19.20;67.48
7182;BME280;3632;42.724;23.298;2022-10-10T09:01:15;96214.28;;;19.27;67.55
7182;BME280;3632;42.724;23.298;2022-10-10T09:03:46;96218.50;;;19.45;66.66
7182;BME280;3632;42.724;23.298;2022-10-10T09:06:24;96221.69;;;19.65;66.64
7182;BME280;3632;42.724;23.298;2022-10-10T09:09:03;96219.78;;;19.67;65.82
7182;BME280;3632;42.724;23.298;2022-10-10T09:11:41;96228.41;;;19.76;65.98
7182;BME280;3632;42.724;23.298;2022-10-10T09:14:18;96222.66;;;19.90;66.04
7182;BME280;3632;42.724;23.298;2022-10-10T09:16:53;96224.31;;;19.99;64.76
7182;BME280;3632;42.724;23.298;2022-10-10T09:19:34;96226.28;;;20.05;64.00
7182;BME280;3632;42.724;23.298;2022-10-10T09:22:10;96220.19;;;20.14;64.01
7182;BME280;3632;42.724;23.298;2022-10-10T09:24:42;96225.44;;;20.30;64.70
7182;BME280;3632;42.724;23.298;2022-10-10T09:27:14;96229.88;;;20.46;64.81
7182;BME280;3632;42.724;23.298;2022-10-10T09:29:45;96151.38;;;20.03;64.11
7182;BME280;3632;42.724;23.298;2022-10-10T09:32:18;96224.94;;;20.77;63.82
7182;BME280;3632;42.724;23.298;2022-10-10T09:34:48;96222.19;;;20.78;63.00
7182;BME280;3632;42.724;23.298;2022-10-10T09:37:20;96253.44;;;20.85;63.08
7182;BME280;3632;42.724;23.298;2022-10-10T09:39:52;96228.19;;;20.87;61.90
7182;BME280;3632;42.724;23.298;2022-10-10T09:42:30;96107.22;;;19.97;61.64
7182;BME280;3632;42.724;23.298;2022-10-10T09:44:58;96267.84;;;20.79;61.91
7182;BME280;3632;42.724;23.298;2022-10-10T09:47:27;96225.72;;;20.69;61.39
7182;BME280;3632;42.724;23.298;2022-10-10T09:49:54;96226.84;;;20.67;62.10
7182;BME280;3632;42.724;23.298;2022-10-10T09:52:25;96226.66;;;20.52;60.28
7182;BME280;3632;42.724;23.298;2022-10-10T09:54:56;96219.88;;;20.59;60.07
7182;BME280;3632;42.724;23.298;2022-10-10T09:57:27;96221.31;;;20.54;59.17
7182;BME280;3632;42.724;23.298;2022-10-10T09:59:55;96218.06;;;20.51;58.33
7182;BME280;3632;42.724;23.298;2022-10-10T10:02:24;96223.22;;;20.35;58.69
7182;BME280;3632;42.724;23.298;2022-10-10T10:04:53;96218.84;;;20.36;58.55
7182;BME280;3632;42.724;23.298;2022-10-10T10:07:24;96214.31;;;20.38;58.27
7182;BME280;3632;42.724;23.298;2022-10-10T10:09:54;96216.66;;;20.23;58.81
7182;BME280;3632;42.724;23.298;2022-10-10T10:12:23;96209.50;;;20.17;58.94
7182;BME280;3632;42.724;23.298;2022-10-10T10:14:57;96209.50;;;20.17;59.35
7182;BME280;3632;42.724;23.298;2022-10-10T10:17:25;96092.63;;;19.46;58.45
7182;BME280;3632;42.724;23.298;2022-10-10T10:19:53;96211.53;;;20.31;57.96
7182;BME280;3632;42.724;23.298;2022-10-10T10:22:31;96213.34;;;20.39;58.71
7182;BME280;3632;42.724;23.298;2022-10-10T10:24:58;96154.44;;;19.99;58.69
7182;BME280;3632;42.724;23.298;2022-10-10T10:27:26;96208.53;;;20.52;58.06
7182;BME280;3632;42.724;23.298;2022-10-10T10:29:55;96205.78;;;20.54;57.26
7182;BME280;3632;42.724;23.298;2022-10-10T10:32:36;96208.53;;;20.60;57.35
7182;BME280;3632;42.724;23.298;2022-10-10T10:35:23;96203.03;;;20.71;57.36
7182;BME280;3632;42.724;23.298;2022-10-10T10:38:17;96198.38;;;20.75;57.13
7182;BME280;3632;42.724;23.298;2022-10-10T10:40:55;96196.75;;;20.90;57.81
7182;BME280;3632;42.724;23.298;2022-10-10T10:43:50;96198.41;;;20.99;57.25
7182;BME280;3632;42.724;23.298;2022-10-10T10:46:28;96190.28;;;20.94;55.30
7182;BME280;3632;42.724;23.298;2022-10-10T10:49:00;96189.00;;;20.82;55.53
7182;BME280;3632;42.724;23.298;2022-10-10T10:51:53;96194.81;;;20.92;56.39
7182;BME280;3632;42.724;23.298;2022-10-10T10:54:42;96192.22;;;20.84;56.16
7182;BME280;3632;42.724;23.298;2022-10-10T10:57:16;96189.94;;;20.73;56.41
7182;BME280;3632;42.724;23.298;2022-10-10T10:59:54;96170.00;;;20.57;56.79
7182;BME280;3632;42.724;23.298;2022-10-10T11:02:33;96170.34;;;20.62;57.10
7182;BME280;3632;42.724;23.298;2022-10-10T11:05:19;96143.31;;;20.06;56.99
7182;BME280;3632;42.724;23.298;2022-10-10T11:07:58;96159.78;;;19.38;61.94
7182;BME280;3632;42.724;23.298;2022-10-10T11:10:33;96109.00;;;18.85;62.11
7182;BME280;3632;42.724;23.298;2022-10-10T11:13:11;96159.03;;;19.02;63.13
7182;BME280;3632;42.724;23.298;2022-10-10T11:15:47;96122.38;;;18.63;64.49
7182;BME280;3632;42.724;23.298;2022-10-10T11:18:20;96013.91;;;18.02;65.35
7182;BME280;3632;42.724;23.298;2022-10-10T11:20:51;96159.38;;;19.25;64.97
7182;BME280;3632;42.724;23.298;2022-10-10T11:23:26;96112.06;;;18.63;64.71
7182;BME280;3632;42.724;23.298;2022-10-10T11:26:00;96161.06;;;18.55;64.00
7182;BME280;3632;42.724;23.298;2022-10-10T11:28:32;96165.03;;;18.85;63.70
7182;BME280;3632;42.724;23.298;2022-10-10T11:31:04;96162.28;;;18.51;64.64
7182;BME280;3632;42.724;23.298;2022-10-10T11:33:35;96093.22;;;18.00;65.38
7182;BME280;3632;42.724;23.298;2022-10-10T11:36:08;96003.94;;;17.71;65.01
7182;BME280;3632;42.724;23.298;2022-10-10T11:38:43;96143.03;;;18.63;65.16
7182;BME280;3632;42.724;23.298;2022-10-10T11:41:15;96138.59;;;18.38;66.02
7182;BME280;3632;42.724;23.298;2022-10-10T11:43:46;96131.69;;;18.56;65.34
7182;BME280;3632;42.724;23.298;2022-10-10T11:46:19;95792.69;;;16.54;62.93
7182;BME280;3632;42.724;23.298;2022-10-10T11:48:53;96123.56;;;18.51;63.68
7182;BME280;3632;42.724;23.298;2022-10-10T11:51:33;96127.22;;;18.58;64.04
7182;BME280;3632;42.724;23.298;2022-10-10T11:54:09;96113.91;;;18.88;61.19
7182;BME280;3632;42.724;23.298;2022-10-10T11:56:41;96119.31;;;18.59;63.88
7182;BME280;3632;42.724;23.298;2022-10-10T11:59:16;96105.75;;;18.57;62.71
7182;BME280;3632;42.724;23.298;2022-10-10T12:01:50;96109.56;;;18.97;61.47
7182;BME280;3632;42.724;23.298;2022-10-10T12:04:18;96063.34;;;18.50;63.05
7182;BME280;3632;42.724;23.298;2022-10-10T12:06:48;96067.19;;;18.82;62.29
7182;BME280;3632;42.724;23.298;2022-10-10T12:09:23;96019.94;;;18.89;61.48
7182;BME280;3632;42.724;23.298;2022-10-10T12:11:55;96107.63;;;19.76;60.26
7182;BME280;3632;42.724;23.298;2022-10-10T12:14:27;96094.28;;;20.05;58.77
7182;BME280;3632;42.724;23.298;2022-10-10T12:16:56;96107.84;;;20.41;59.27
7182;BME280;3632;42.724;23.298;2022-10-10T12:19:24;96096.69;;;20.73;57.59
7182;BME280;3632;42.724;23.298;2022-10-10T12:21:55;96080.91;;;21.23;57.29
7182;BME280;3632;42.724;23.298;2022-10-10T12:24:24;96068.81;;;21.62;56.55
7182;BME280;3632;42.724;23.298;2022-10-10T12:27:26;96070.19;;;22.12;53.40
7182;BME280;3632;42.724;23.298;2022-10-10T12:30:17;96074.25;;;22.37;52.13
7182;BME280;3632;42.724;23.298;2022-10-10T12:32:44;96059.03;;;22.57;51.43
7182;BME280;3632;42.724;23.298;2022-10-10T12:35:33;96020.03;;;22.57;52.11
7182;BME280;3632;42.724;23.298;2022-10-10T12:38:18;96064.56;;;23.29;50.08
7182;BME280;3632;42.724;23.298;2022-10-10T12:41:07;96060.00;;;23.45;48.13
7182;BME280;3632;42.724;23.298;2022-10-10T12:46:28;96058.53;;;24.65;47.25
7182;BME280;3632;42.724;23.298;2022-10-10T12:48:58;96055.38;;;25.53;45.49
7182;BME280;3632;42.724;23.298;2022-10-10T12:51:27;96057.44;;;26.31;42.45
7182;BME280;3632;42.724;23.298;2022-10-10T12:53:56;96045.84;;;26.80;41.30
7182;BME280;3632;42.724;23.298;2022-10-10T12:56:37;96047.28;;;26.89;42.01
7182;BME280;3632;42.724;23.298;2022-10-10T12:59:12;96050.66;;;26.70;41.70
7182;BME280;3632;42.724;23.298;2022-10-10T13:01:44;96051.44;;;26.57;41.90
7182;BME280;3632;42.724;23.298;2022-10-10T13:04:15;96053.97;;;26.05;42.51
7182;BME280;3632;42.724;23.298;2022-10-10T13:06:43;96046.47;;;25.88;42.89
7182;BME280;3632;42.724;23.298;2022-10-10T13:09:16;96041.03;;;25.83;43.31
7182;BME280;3632;42.724;23.298;2022-10-10T13:11:54;96049.84;;;25.82;43.03
7182;BME280;3632;42.724;23.298;2022-10-10T13:14:21;96043.13;;;25.60;42.11
7182;BME280;3632;42.724;23.298;2022-10-10T13:16:48;96036.00;;;25.07;44.11
7182;BME280;3632;42.724;23.298;2022-10-10T13:19:18;96033.16;;;25.01;43.78
7182;BME280;3632;42.724;23.298;2022-10-10T13:21:46;96041.94;;;24.94;44.78
7182;BME280;3632;42.724;23.298;2022-10-10T13:24:17;96049.91;;;24.86;44.55
7182;BME280;3632;42.724;23.298;2022-10-10T13:26:46;96046.88;;;25.17;44.84
7182;BME280;3632;42.724;23.298;2022-10-10T13:29:26;96046.88;;;25.51;44.02
7182;BME280;3632;42.724;23.298;2022-10-10T13:31:58;96037.91;;;25.60;43.89
7182;BME280;3632;42.724;23.298;2022-10-10T13:34:29;96037.47;;;25.50;43.65
7182;BME280;3632;42.724;23.298;2022-10-10T13:36:59;96040.06;;;25.50;43.72
7182;BME280;3632;42.724;23.298;2022-10-10T13:39:28;96044.50;;;25.22;42.82
7182;BME280;3632;42.724;23.298;2022-10-10T13:41:56;96037.66;;;24.86;43.14
7182;BME280;3632;42.724;23.298;2022-10-10T13:44:30;96006.72;;;24.13;43.52
7182;BME280;3632;42.724;23.298;2022-10-10T13:46:57;96051.97;;;24.12;45.55
7182;BME280;3632;42.724;23.298;2022-10-10T13:49:25;96052.50;;;23.86;46.22
7182;BME280;3632;42.724;23.298;2022-10-10T13:52:00;95996.38;;;23.18;46.07
7182;BME280;3632;42.724;23.298;2022-10-10T13:54:39;96054.88;;;23.52;46.32
7182;BME280;3632;42.724;23.298;2022-10-10T13:57:12;96054.44;;;23.48;48.20
7182;BME280;3632;42.724;23.298;2022-10-10T13:59:42;96010.25;;;22.96;46.98
7182;BME280;3632;42.724;23.298;2022-10-10T14:02:12;96039.25;;;23.22;47.33
7182;BME280;3632;42.724;23.298;2022-10-10T14:04:44;96042.38;;;23.33;47.32
7182;BME280;3632;42.724;23.298;2022-10-10T14:07:15;96059.06;;;23.38;47.42
7182;BME280;3632;42.724;23.298;2022-10-10T14:09:44;96024.72;;;23.28;46.73
7182;BME280;3632;42.724;23.298;2022-10-10T14:12:18;96047.00;;;23.45;46.54
7182;BME280;3632;42.724;23.298;2022-10-10T14:14:51;96048.59;;;23.61;46.45
7182;BME280;3632;42.724;23.298;2022-10-10T14:17:18;96036.44;;;23.39;46.29
7182;BME280;3632;42.724;23.298;2022-10-10T14:19:46;96047.50;;;23.41;46.79
7182;BME280;3632;42.724;23.298;2022-10-10T14:22:13;96053.84;;;23.09;47.41
7182;BME280;3632;42.724;23.298;2022-10-10T14:24:40;96021.59;;;22.66;48.09